Aérodrome :
LOGIN :

S'inscrire | Disclaimer

   EN    FR    IT 

 










Légende :    VFR   VFR Marginal   IFR   IFR Intensif   IFR Très Intensif
Visi : 
Plafond : 
>= 8 km
>= 3000ft
5 à 8 km
1000 à 3000 ft
1500m à 5 km
500 à 1000 ft
800 à 1500m
200 à 500 ft
< 800m
< 200 ft
Symboles :   Orages  Brouillard  Fortes neiges  Fortes précipitations  Vent > 20 kt
SIGMETs :   Divers  Orages  Givrage  Turbulence  Onde Orograph.  Cendres Volcan.






- Altitude de l'aérodrome : 302 ft


LFPM - Melun Villaroche

DERNIER METAR :
  • 070200Z AUTO 22010KT 9999 FEW005 OVC052 09/09 Q1015

METARs EXPIRÉS :
  • 070130Z AUTO 21009KT 9999 SCT008 BKN037 OVC056 09/08 Q1015
  • 070100Z AUTO 23010KT 9999 BKN008 BKN025 BKN046 09/09 Q1015
  • 070030Z AUTO 24011KT 9999 BKN009 BKN023 OVC058 09/09 Q1015
  • 070000Z AUTO 23011KT 9999 BKN008 OVC013 09/09 Q1014
  • 062330Z AUTO 23011KT 9999 OVC008 09/09 Q1014
  • 062300Z AUTO 23012KT 9999 OVC009 09/08 Q1014

Prévision TAF périmée.
ATIS : +33 1 64 14 28 44



MET'MAP, la Météo Aéronautique d'un coup d'oeil ! - Copyright ORBIFLY Décembre 2007 - Disclaimer

ORBIFLY MET'MAP TEAM :

Programmation & Développement : Alexandra Zaïnal
Sur une idée originale de : Baudouin d'Aumeries
Assistance à la programmation : Marc-Olivier Méhu
Soutien technique & logistique : Manuel Goepfert

Contact : metmap@orbifly.com




SOURCES & CREDITS :

   NOAA